KDLZKVLL

Guest
Details From KDLZ - DELAWARE MUNI
To KVLL - OAKLAND TROY
Flight Number -
Tags generated
Created
Modified
Stats Distance 136 nm / 252 km
Max Altitude 6,600 ft / 2,012 m
Waypoints 3
Social Downloads 0
Likes 0
Share VATSIM

Download

Looking for another format? Having issues loading an existing format? Contact us
Advertisement - Login to hide

Notes

Basic altitude profile: - Ascent Rate: 1200ft/min - Ascent Speed: 100kts - Cruise Altitude: 17500ft - Cruise Speed: 220kts - Descent Rate: 1000ft/min - Descent Speed: 175kts Options: - Use NATs: yes - Use PACOTS: yes - Use low airways: no - Use high airways: yes

Route

KDLZ CRL14 KVLL

ID Type Via Altitude Latitude Longitude Leg Dist Tot Dist Heading (true) Name
O KDLZ APT - 0 ft / 0 m 40.27970˚ -83.11480˚ - 0 nm - DELAWARE MUNI
CRL14 FIX - 6,600 ft / 2,012 m 42.02322˚ -83.14602˚ 104 nm 104 nm 359° / 359° -
O KVLL APT - 0 ft / 0 m 42.54294˚ -83.17791˚ 31 nm 135 nm 357° / 357° OAKLAND TROY

Altitude Profile

Advertisement - Login to hide

KDLZ

Details ICAO KDLZ
Name DELAWARE MUNI
Region United States
Timezone America/New_York (UTC-5.0)
Stats Elevation 945 ft / 288 m (AMSL)
Location 40.279702° -83.114801°
Runways 1
Magnetic Variation 7.088° W

METAR

KDLZ 141455Z AUTO 00000KT 7SM -SN SCT012 SCT021 OVC035 M06/M08 A2999 RMK AO2

Decode

TAF

Not found

Departure Runways

ID Width Length Bearing (true) Bearing (mag) Surface Threshold Offset Overrun Length
10 100 ft / 30 m 4,989 ft / 1,521 m 98.37° 105.46° Asphalt 0 ft / 0 m 0 ft / 0 m
28 100 ft / 30 m 4,989 ft / 1,521 m 278.38° 285.47° Asphalt 0 ft / 0 m 0 ft / 0 m

KVLL

Details ICAO KVLL
Name OAKLAND TROY
Region United States
Timezone America/Detroit (UTC-5.0)
Stats Elevation 729 ft / 222 m (AMSL)
Location 42.542944° -83.177908°
Runways 1
Magnetic Variation 7.498° W

METAR

KVLL 141455Z AUTO 31006KT 10SM CLR M10/M14 A3000 RMK AO2 T11021137

Decode

TAF

Not found

Destination Runways

ID Width Length Bearing (true) Bearing (mag) Surface Threshold Offset Overrun Length
09 60 ft / 18 m 3,541 ft / 1,079 m 89.70° 97.20° Asphalt 0 ft / 0 m 250 ft / 76 m
27 60 ft / 18 m 3,541 ft / 1,079 m 269.70° 277.20° Asphalt 0 ft / 0 m 0 ft / 0 m